Tiempo atmosférico en la estación meteorológica de Cartaya, Huelva (15 m.)



Fecha
DESCASC
Temp. máxima en grados centígrados (hora)
DESCASC
Temp. mínima en grados centígrados (hora)
DESCASC
Temp. media en grados centígrados
DESCASC
Racha de viento máxima en m/sg (hora)
DESCASC
Velocidad máxima media en intervalos de 10 minutos(hora)
DESCASC
Precipitaciones diarias en mm
DESCASC
Precipitaciones de 00:00 a 06:00 en mm
DESCASC
Precipitaciones de 06:00 a 12:00 en mm
DESCASC
Precipitaciones de 12:00 a 18:00 en mm
DESCASC
Precipitaciones de 18:00 a 24:00 en mm
DESCASC
28-02-2021 18.4 (13:10) 8.2 (07:20) 13.3 6.94 (09:50) 3.61 (13:20) 0 0 0 0 0
27-02-2021 17.8 (14:00) 7.8 (04:50) 12.8 5 (14:20) 2.5 (11:00) 0 0 0 0 0
26-02-2021 15.7 (17:40) 11 (23:59) 13.3 7.22 (07:10) 3.33 (07:10) 11.4 4.4 7 0 0
25-02-2021 17.1 (15:40) 9.3 (00:00) 13.2 7.78 (13:20) 3.89 (11:50) 0 0 0 0 0
24-02-2021 19.2 (14:50) 7.2 (00:00) 13.2 10 (12:00) 5.28 (13:50) 0 0 0 0 0
23-02-2021 19 (17:20) 7.7 (00:00) 13.3 8.33 (13:00) 4.44 (13:00) 0 0 0 0 0
22-02-2021 16.7 (16:50) 3.4 (00:00) 10.1 5.28 (14:40) 3.33 (14:30) 0 0 0 0 0
21-02-2021 16 (02:30) 8.1 (00:00) 12.1 14.17 (02:50) 8.33 (01:40) 7.8 2.8 5 0 0
20-02-2021 17.9 (14:30) 14 (00:00) 15.9 12.5 (22:30) 7.22 (20:20) 0 0 0 0 0
19-02-2021 16.1 (16:00) 9.3 (00:00) 12.7 7.5 (12:20) 4.17 (12:20) 0 0 0 0 0
18-02-2021 16.8 (14:50) 5.8 (00:00) 11.3 4.72 (16:50) 2.78 (12:40) 0 0 0 0 0
17-02-2021 17.2 (12:30) 4.5 (00:00) 10.9 4.44 (17:20) 3.33 (17:10) 0 0 0 0 0
16-02-2021 18.3 (15:30) 5.9 (00:00) 12.1 7.78 (01:40) 3.89 (02:00) 0 0 0 0 0
15-02-2021 19.1 (15:50) 6.3 (00:00) 12.7 8.89 (22:30) 4.72 (22:30) 0 0 0 0 0
14-02-2021 21.2 (14:10) 6.1 (00:00) 13.7 7.5 (12:00) 3.61 (12:10) 0 0 0 0 0
13-02-2021 19.6 (17:20) 5.9 (00:00) 12.8 4.44 (03:20) 2.22 (02:40) 0 0 0 0 0
12-02-2021 19.8 (16:30) 9 (00:00) 14.4 7.22 (11:00) 3.61 (18:10) 1.2 0.8 0.4 0 0
11-02-2021 17.7 (14:30) 14 (00:00) 15.9 4.72 (00:40) 2.5 (00:40) 0.8 0 0.2 0.6 0
10-02-2021 17.3 (13:10) 14.2 (00:00) 15.7 13.33 (05:30) 7.78 (05:30) 0.2 0.2 0 0 0
09-02-2021 15.4 (14:50) 9.2 (00:00) 12.3 14.72 (12:00) 8.06 (12:00) 0.8 0 0.4 0.2 0.2
08-02-2021 16.5 (14:50) 10.4 (00:00) 13.4 16.11 (04:40) 8.89 (02:30) 7.2 7 0.2 0 0
07-02-2021 14.6 (14:10) 7.5 (00:00) 11.1 10.28 (22:30) 5.83 (19:30) 0 0 0 0 0
06-02-2021 15.8 (14:20) 10.2 (00:00) 13 10 (15:00) 5 (15:00) 1 0 0 0 1
05-02-2021 14.3 (16:50) 10.5 (00:00) 12.4 11.67 (15:50) 7.22 (15:30) 36.8 2.6 26.2 5.2 2.8
04-02-2021 15.9 (13:00) 11.6 (00:00) 13.8 9.44 (11:30) 5.28 (11:30) 7 4.2 1.6 1.2 0
03-02-2021 18.1 (14:10) 9.2 (00:00) 13.7 6.67 (22:50) 3.61 (19:10) 0 0 0 0 0
02-02-2021 17 (14:00) 8.9 (00:00) 12.9 4.72 (18:20) 2.78 (17:20) 0.8 0 0.6 0.2 0
01-02-2021 17.5 (12:50) 12.2 (00:00) 14.8 8.89 (01:20) 4.72 (01:20) 0 0 0 0 0
31-01-2021 17.5 (13:50) 7.6 (00:00) 12.5 9.72 (15:30) 5.83 (15:40) 0 0 0 0 0
30-01-2021 19.4 (14:40) 11.1 (00:00) 15.3 10.28 (17:50) 5 (09:40) 1 0 1 0 0

Gráficas

Temp. máximas Temp. mínimas Temp. medias Precipitaciones Rachas de viento máximas Velocidades máximas media en intervalos de 10 minutos

Datos horarios

Fecha y hora oficial Temperatura (ºC) Velocidad del viento (km/h) Dirección del viento Racha (km/h) Dirección de racha Precipitación (mm) Presión (hPa) Tendencia (hPa) Humedad (%)
2021-02-28 23:00:00 9.9 3 Nordeste 6 Norte 0 -- -- 94
2021-02-28 22:00:00 11.3 5 Norte 8 Noroeste 0 -- -- 92
2021-02-28 21:00:00 11.7 4 Norte 6 Noroeste 0 -- -- 92
2021-02-28 20:00:00 12.6 4 Norte 5 Norte 0 -- -- 89
2021-02-28 19:00:00 15.1 3 Noroeste 5 Sudoeste 0 -- -- 82
2021-02-28 18:00:00 16.2 3 Sudoeste 9 Sur 0 -- -- 72
2021-02-28 17:00:00 16.6 5 Sur 12 Sudoeste 0 -- -- 70
2021-02-28 16:00:00 18.1 8 Sur 12 Sur 0 -- -- 63
2021-02-28 15:00:00 18.3 7 Sur 16 Sudeste 0 -- -- 62
2021-02-28 14:00:00 18.1 10 Sur 21 Sudeste 0 -- -- 61
2021-02-28 13:00:00 18.2 5 Este 18 Este 0 -- -- 61
2021-02-28 12:00:00 16.6 8 Nordeste 19 Nordeste 0 -- -- 69
2021-02-28 11:00:00 14.3 10 Nordeste 22 Nordeste 0 -- -- 80
2021-02-28 10:00:00 11.6 10 Nordeste 25 Nordeste 0 -- -- 87
2021-02-28 09:00:00 9.3 9 Nordeste 16 Nordeste 0 -- -- 96
2021-02-28 08:00:00 8.3 7 Nordeste 13 Nordeste 0 -- -- 97
2021-02-28 07:00:00 8.5 6 Nordeste 13 Nordeste 0 -- -- 96
2021-02-28 06:00:00 8.7 6 Nordeste 13 Norte 0 -- -- 97
2021-02-28 05:00:00 9.1 7 Nordeste 12 Norte 0 -- -- 98
2021-02-28 04:00:00 9.2 6 Norte 10 Norte 0 -- -- 99
2021-02-28 03:00:00 8.6 5 Norte 9 Nordeste 0 -- -- 99
2021-02-28 02:00:00 8.3 4 Nordeste 12 Este 0 -- -- 98
2021-02-28 01:00:00 8.8 5 Nordeste 7 Nordeste 0 -- -- 98
2021-02-28 00:00:00 8.9 4 Norte 7 Nordeste 0 -- -- 97
2021-02-27 23:00:00 9 4 Norte 6 Nordeste 0 -- -- 97
2021-02-27 22:00:00 10 4 Norte 7 Norte 0 -- -- 95
2021-02-27 21:00:00 11.3 5 Norte 6 Nordeste 0 -- -- 93
2021-02-27 20:00:00 12.7 4 Norte 6 Norte 0 -- -- 92
2021-02-27 19:00:00 15.3 3 Sur 5 Sur 0 -- -- 83
2021-02-27 18:00:00 16 0 Calma 6 Sudoeste 0 -- -- 80
2021-02-27 17:00:00 16.8 4 Sur 13 Nordeste 0 -- -- 75
2021-02-27 16:00:00 17 7 Nordeste 15 Nordeste 0 -- -- 65
2021-02-27 15:00:00 17 7 Nordeste 18 Este 0 -- -- 63
2021-02-27 14:00:00 17.8 6 Nordeste 13 Norte 0 -- -- 70
2021-02-27 13:00:00 16.9 4 Nordeste 14 Este 0 -- -- 72
2021-02-27 12:00:00 16.4 5 Este 17 Este 0 -- -- 72
2021-02-27 11:00:00 14 9 Nordeste 15 Este 0 -- -- 86
2021-02-27 10:00:00 11.3 7 Nordeste 14 Nordeste 0 -- -- 98
2021-02-27 09:00:00 9.4 5 Nordeste 10 Nordeste 0 -- -- 100
2021-02-27 08:00:00 8.3 5 Norte 9 Norte 0 -- -- 100
2021-02-27 07:00:00 8.4 5 Nordeste 8 Norte 0 -- -- 100
2021-02-27 06:00:00 8.4 4 Norte 8 Norte 0 -- -- 100
2021-02-27 05:00:00 7.8 4 Norte 6 Norte 0 -- -- 99
2021-02-27 04:00:00 8.6 0 Calma 6 Nordeste 0 -- -- 99
2021-02-27 03:00:00 8.7 3 Norte 5 Norte 0 -- -- 99
2021-02-27 02:00:00 10.1 0 Calma 6 Noroeste 0 -- -- 99
2021-02-27 01:00:00 10.5 3 Norte 6 Noroeste 0 -- -- 99
2021-02-27 00:00:00 11 4 Noroeste 7 Noroeste 0 -- -- 98
2021-02-26 23:00:00 11.7 3 Norte 9 Norte 0 -- -- 98
2021-02-26 22:00:00 11.9 5 Norte 9 Norte 0 -- -- 98
2021-02-26 21:00:00 12.1 4 Norte 6 Noroeste 0 -- -- 97
2021-02-26 20:00:00 13.2 4 Noroeste 7 Noroeste 0 -- -- 95
2021-02-26 19:00:00 14.8 3 Noroeste 6 Oeste 0 -- -- 91
2021-02-26 18:00:00 15.5 4 Sudoeste 6 Sudoeste 0 -- -- 86
2021-02-26 17:00:00 15.5 4 Sur 11 Sudeste 0 -- -- 85
2021-02-26 16:00:00 15 4 Este 11 Este 0 -- -- 88
2021-02-26 15:00:00 14.7 4 Sudeste 16 Sudeste 0 -- -- 89
2021-02-26 14:00:00 14.7 9 Sudeste 19 Sudeste 0 -- -- 89
2021-02-26 13:00:00 14.4 5 Sudeste 11 Sudeste 0 -- -- 90
2021-02-26 12:00:00 13.5 4 Sudeste 14 Nordeste 0 -- -- 97
2021-02-26 11:00:00 12.6 8 Nordeste 15 Este 0.8 -- -- 99
2021-02-26 10:00:00 12.1 7 Este 13 Este 1.6 -- -- 99
2021-02-26 09:00:00 11.9 5 Nordeste 14 Este 1.6 -- -- 99
2021-02-26 08:00:00 12.1 7 Este 26 Este 1.4 -- -- 99
2021-02-26 07:00:00 11.8 11 Nordeste 24 Nordeste 1.6 -- -- 99
2021-02-26 06:00:00 11.9 6 Nordeste 13 Nordeste 2.2 -- -- 99
2021-02-26 05:00:00 12.3 6 Nordeste 10 Nordeste 2 -- -- 98
2021-02-26 04:00:00 12.8 6 Nordeste 11 Nordeste 0.2 -- -- 98
2021-02-26 03:00:00 12.6 4 Nordeste 7 Nordeste 0 -- -- 98
2021-02-26 02:00:00 12.7 4 Norte 8 Nordeste 0 -- -- 97
2021-02-26 01:00:00 12.9 3 Nordeste 8 Nordeste 0 -- -- 96
2021-02-26 00:00:00 13.1 5 Nordeste 9 Nordeste 0 -- -- 96
2021-02-25 23:00:00 12.9 4 Norte 6 Nordeste 0 -- -- 96
2021-02-25 22:00:00 12.9 3 Norte 5 Nordeste 0 -- -- 95
2021-02-25 21:00:00 13.3 4 Nordeste 6 Nordeste 0 -- -- 94
2021-02-25 20:00:00 14 3 Nordeste 6 Sudeste 0 -- -- 93
2021-02-25 19:00:00 15.1 3 Sudeste 13 Este 0 -- -- 89
2021-02-25 18:00:00 15.8 6 Sudeste 18 Sudeste 0 -- -- 87
2021-02-25 17:00:00 16.6 8 Sudeste 20 Sudeste 0 -- -- 82
2021-02-25 16:00:00 17.1 8 Sudeste 21 Sudeste 0 -- -- 78
2021-02-25 15:00:00 16.5 9 Sudeste 19 Sudeste 0 -- -- 80
2021-02-25 14:00:00 16.3 10 Sudeste 28 Sudeste 0 -- -- 78
2021-02-25 13:00:00 16.9 11 Este 24 Sudeste 0 -- -- 75
2021-02-25 12:00:00 15.2 14 Este 25 Este 0 -- -- 75
2021-02-25 11:00:00 13.1 7 Nordeste 13 Nordeste 0 -- -- 81
2021-02-25 10:00:00 11.9 6 Nordeste 13 Norte 0 -- -- 83
2021-02-25 09:00:00 10.7 5 Nordeste 13 Nordeste 0 -- -- 87
2021-02-25 08:00:00 10.1 5 Nordeste 14 Nordeste 0 -- -- 88
2021-02-25 07:00:00 11 6 Nordeste 14 Nordeste 0 -- -- 85
2021-02-25 06:00:00 11.1 7 Nordeste 14 Nordeste 0 -- -- 86
2021-02-25 05:00:00 9.7 6 Nordeste 11 Nordeste 0 -- -- 92
2021-02-25 04:00:00 9.4 6 Norte 10 Nordeste 0 -- -- 93
2021-02-25 03:00:00 9.8 5 Nordeste 10 Nordeste 0 -- -- 92
2021-02-25 02:00:00 10.1 4 Nordeste 11 Nordeste 0 -- -- 91
2021-02-25 01:00:00 10.7 5 Nordeste 9 Nordeste 0 -- -- 90
2021-02-25 00:00:00 12.3 4 Nordeste 18 Este 0 -- -- 85
2021-02-24 23:00:00 14.1 5 Este 27 Sudeste 0 -- -- 81
2021-02-24 22:00:00 15 15 Sudeste 30 Este 0 -- -- 79
2021-02-24 21:00:00 15.1 12 Sudeste 28 Este 0 -- -- 82
2021-02-24 20:00:00 15.5 13 Sudeste 28 Sudeste 0 -- -- 80
2021-02-24 19:00:00 16.1 14 Sudeste 25 Sudeste 0 -- -- 79
2021-02-24 18:00:00 17.4 11 Sudeste 23 Sudeste 0 -- -- 75
2021-02-24 17:00:00 18.7 9 Sudeste 24 Este 0 -- -- 68
2021-02-24 16:00:00 19 12 Sudeste 24 Sudeste 0 -- -- 64
2021-02-24 15:00:00 19.1 12 Sudeste 29 Sudeste 0 -- -- 62
2021-02-24 14:00:00 18.4 17 Sudeste 33 Sudeste 0 -- -- 65
2021-02-24 13:00:00 18.2 13 Sudeste 34 Este 0 -- -- 65
2021-02-24 12:00:00 17.3 17 Este 36 Sudeste 0 -- -- 65
2021-02-24 11:00:00 14.9 8 Este 21 Este 0 -- -- 74
2021-02-24 10:00:00 11.9 9 Nordeste 17 Nordeste 0 -- -- 84
2021-02-24 09:00:00 8.8 9 Nordeste 15 Este 0 -- -- 93
2021-02-24 08:00:00 7.4 7 Nordeste 13 Nordeste 0 -- -- 95
2021-02-24 07:00:00 7.6 6 Nordeste 16 Nordeste 0 -- -- 93
2021-02-24 06:00:00 7.6 8 Nordeste 16 Nordeste 0 -- -- 91
2021-02-24 05:00:00 7.4 6 Nordeste 11 Nordeste 0 -- -- 90
2021-02-24 04:00:00 7.5 6 Nordeste 13 Nordeste 0 -- -- 90
2021-02-24 03:00:00 7.8 6 Nordeste 11 Norte 0 -- -- 88
2021-02-24 02:00:00 8.1 6 Nordeste 12 Nordeste 0 -- -- 87
2021-02-24 01:00:00 8.9 5 Nordeste 10 Nordeste 0 -- -- 85
2021-02-24 00:00:00 11.6 4 Nordeste 23 Sudeste 0 -- -- 77
2021-02-23 23:00:00 14.1 10 Sudeste 27 Sudeste 0 -- -- 70
2021-02-23 22:00:00 14.5 11 Sudeste 22 Sudeste 0 -- -- 69
2021-02-23 21:00:00 14.4 7 Sudeste 14 Sudeste 0 -- -- 77
2021-02-23 20:00:00 15.1 7 Sudeste 16 Sudeste 0 -- -- 73
2021-02-23 19:00:00 16.8 6 Sudeste 13 Sur 0 -- -- 60
2021-02-23 18:00:00 18.3 7 Sudeste 14 Sudeste 0 -- -- 48
2021-02-23 17:00:00 18.9 9 Sudeste 21 Sudeste 0 -- -- 47
2021-02-23 16:00:00 18.6 9 Sudeste 21 Sudeste 0 -- -- 53
2021-02-23 15:00:00 18.7 11 Sudeste 24 Sudeste 0 -- -- 45
2021-02-23 14:00:00 18.5 14 Sudeste 27 Este 0 -- -- 48
2021-02-23 13:00:00 17.3 16 Este 30 Este 0 -- -- 51
2021-02-23 12:00:00 15.4 12 Nordeste 23 Nordeste 0 -- -- 73
2021-02-23 11:00:00 12.9 10 Nordeste 22 Este 0 -- -- 82
2021-02-23 10:00:00 10.3 8 Nordeste 17 Nordeste 0 -- -- 90
2021-02-23 09:00:00 8.3 10 Nordeste 17 Nordeste 0 -- -- 98
2021-02-23 08:00:00 8 9 Nordeste 14 Nordeste 0 -- -- 98
2021-02-23 07:00:00 8.4 6 Nordeste 14 Nordeste 0 -- -- 98
2021-02-23 06:00:00 8.3 6 Nordeste 13 Nordeste 0 -- -- 98
2021-02-23 05:00:00 8.1 6 Nordeste 12 Nordeste 0 -- -- 98
2021-02-23 04:00:00 8.2 6 Nordeste 11 Norte 0 -- -- 98
2021-02-23 03:00:00 8.7 6 Nordeste 12 Nordeste 0 -- -- 98
2021-02-23 02:00:00 8 7 Nordeste 11 Nordeste 0 -- -- 98
2021-02-23 01:00:00 7.8 6 Nordeste 10 Nordeste 0 -- -- 98
2021-02-23 00:00:00 7.7 5 Norte 8 Nordeste 0 -- -- 97
2021-02-22 23:00:00 7 2 Este 4 Este 0 -- -- 95
2021-02-22 22:00:00 7.8 2 Nordeste 4 Nordeste 0 -- -- 94
2021-02-22 21:00:00 9.5 0 Calma 6 Sur 0 -- -- 89
2021-02-22 20:00:00 12.9 3 Sur 10 Sur 0 -- -- 80
2021-02-22 19:00:00 14.7 6 Sur 15 Sur 0 -- -- 72
2021-02-22 18:00:00 16 9 Sur 17 Sur 0 -- -- 66
2021-02-22 17:00:00 16.6 8 Sur 19 Sur 0 -- -- 60
2021-02-22 16:00:00 16.6 10 Sur 18 Sur 0 -- -- 62
2021-02-22 15:00:00 16.4 10 Sur 19 Sur 0 -- -- 63
2021-02-22 14:00:00 16.1 11 Sur 19 Sur 0 -- -- 61
2021-02-22 13:00:00 15.3 8 Sudeste 15 Sudeste 0 -- -- 72
2021-02-22 12:00:00 14.1 7 Sudeste 13 Sudeste 0 -- -- 72
2021-02-22 11:00:00 12.2 3 Este 8 Este 0 -- -- 74
2021-02-22 10:00:00 8.2 4 Nordeste 10 Nordeste 0 -- -- 96
2021-02-22 09:00:00 4.8 5 Nordeste 10 Norte 0 -- -- 100
2021-02-22 08:00:00 3.8 6 Nordeste 9 Nordeste 0 -- -- 99
2021-02-22 07:00:00 3.4 5 Nordeste 6 Norte 0 -- -- 98
2021-02-22 06:00:00 4.3 4 Norte 8 Norte 0 -- -- 97
2021-02-22 05:00:00 4.1 4 Norte 6 Noroeste 0 -- -- 97
2021-02-22 04:00:00 4.4 5 Norte 7 Norte 0 -- -- 98
2021-02-22 03:00:00 5 4 Norte 5 Norte -- -- -- 96
2021-02-22 02:00:00 5.5 3 Norte 8 Norte 0 -- -- 94
2021-02-22 01:00:00 6.6 4 Norte 9 Noroeste 0 -- -- 92
2021-02-22 00:00:00 8.1 6 Oeste 13 Oeste 0 -- -- 87
2021-02-21 23:00:00 8.7 6 Oeste 13 Oeste 0 -- -- 86
2021-02-21 22:00:00 10.5 8 Oeste 21 Oeste 0 -- -- 77
2021-02-21 21:00:00 10.2 7 Oeste 14 Oeste 0 -- -- 79
2021-02-21 20:00:00 11 7 Oeste 20 Noroeste 0 -- -- 75
2021-02-21 19:00:00 12.5 11 Oeste 22 Oeste 0 -- -- 66
2021-02-21 18:00:00 12.5 10 Noroeste 39 Noroeste 0 -- -- 65
2021-02-21 17:00:00 15.9 14 Oeste 32 Noroeste 0 -- -- 57
2021-02-21 16:00:00 14.9 15 Noroeste 36 Oeste 0 -- -- 59
2021-02-21 15:00:00 15 12 Noroeste 33 Oeste 0 -- -- 61
2021-02-21 14:00:00 13.3 14 Oeste 33 Noroeste 0 -- -- 74
2021-02-21 13:00:00 12.3 9 Noroeste 19 Nordeste 0 -- -- 83
2021-02-21 12:00:00 10.7 7 Norte 21 Norte 0 -- -- 91
2021-02-21 11:00:00 10.1 9 Noroeste 26 Noroeste 0.2 -- -- 96
2021-02-21 10:00:00 9.7 9 Norte 25 Noroeste 0.2 -- -- 97
2021-02-21 09:00:00 9.9 9 Norte 20 Noroeste 1.2 -- -- 98
2021-02-21 08:00:00 9.9 10 Noroeste 33 Noroeste 2.4 -- -- 97
2021-02-21 07:00:00 12 7 Oeste 18 Oeste 1 -- -- 96
2021-02-21 06:00:00 12.3 12 Oeste 27 Sudoeste 1.2 -- -- 95
2021-02-21 05:00:00 12.5 8 Oeste 49 Sur 1 -- -- 93
2021-02-21 04:00:00 15 25 Sudoeste 42 Sudoeste 0 -- -- 80
2021-02-21 03:00:00 15.7 25 Sudoeste 51 Sudoeste 0 -- -- 74
2021-02-21 02:00:00 15.5 27 Sudeste 50 Sudeste 0.6 -- -- 83
2021-02-21 01:00:00 15.4 23 Sudeste 46 Sudeste 0 -- -- 83
2021-02-21 00:00:00 15.1 21 Sudeste 45 Sudeste 0 -- -- 85
2021-02-20 23:00:00 15.1 22 Sudeste 45 Sudeste 0 -- -- 85
2021-02-20 22:00:00 15.2 23 Sudeste 44 Sudeste 0 -- -- 86
2021-02-20 21:00:00 15.6 25 Sudeste 45 Sudeste 0 -- -- 88
2021-02-20 20:00:00 16 26 Sudeste 42 Sudeste 0 -- -- 83
2021-02-20 19:00:00 15.8 21 Sudeste 38 Sudeste 0 -- -- 86
2021-02-20 18:00:00 16.2 19 Sudeste 35 Sudeste 0 -- -- 82
2021-02-20 17:00:00 16.4 19 Sudeste 36 Sudeste 0 -- -- 82
2021-02-20 16:00:00 17.1 20 Sudeste 39 Sudeste 0 -- -- 76
2021-02-20 15:00:00 17.9 21 Sudeste 37 Sudeste 0 -- -- 74
2021-02-20 14:00:00 17.6 20 Sudeste 42 Sudeste 0 -- -- 76
2021-02-20 13:00:00 17.2 23 Sudeste 41 Sudeste 0 -- -- 78
2021-02-20 12:00:00 16.8 21 Sudeste 40 Sudeste 0 -- -- 81
2021-02-20 11:00:00 16.2 19 Sudeste 33 Sudeste 0 -- -- 88
2021-02-20 10:00:00 15.9 19 Sudeste 32 Sudeste 0 -- -- 86
2021-02-20 09:00:00 15 13 Sur 26 Sur 0 -- -- 89
2021-02-20 08:00:00 14.7 16 Sudeste 28 Sudeste 0 -- -- 87
2021-02-20 07:00:00 14.6 15 Sudeste 31 Sudeste 0 -- -- 86
2021-02-20 06:00:00 14.5 13 Sudeste 25 Sur 0 -- -- 89
2021-02-20 05:00:00 14.5 12 Sudeste 26 Sudeste 0 -- -- 86
2021-02-20 04:00:00 14.6 14 Sudeste 23 Sur 0 -- -- 86
2021-02-20 03:00:00 14.6 10 Sudeste 21 Sur 0 -- -- 84
2021-02-20 02:00:00 14.4 10 Sudeste 21 Sudeste 0 -- -- 85
2021-02-20 01:00:00 14.4 10 Sur 17 Sudeste 0 -- -- 85
2021-02-20 00:00:00 14 7 Sur 20 Sudeste 0 -- -- 87
2021-02-19 23:00:00 14 10 Sudeste 18 Sudeste 0 -- -- 86
2021-02-19 22:00:00 13.9 7 Sudeste 14 Sudeste 0 -- -- 90
2021-02-19 21:00:00 14 7 Sudeste 14 Sudeste 0 -- -- 91
2021-02-19 20:00:00 14.1 5 Sudeste 12 Este 0 -- -- 89
2021-02-19 19:00:00 14.6 8 Sudeste 15 Sudeste 0 -- -- 89
2021-02-19 18:00:00 15.4 8 Sudeste 17 Sur 0 -- -- 85
2021-02-19 17:00:00 15.6 7 Sudeste 19 Sudeste 0 -- -- 83
2021-02-19 16:00:00 16.1 10 Sudeste 19 Sudeste 0 -- -- 79
2021-02-19 15:00:00 15.5 9 Sudeste 21 Sudeste 0 -- -- 79
2021-02-19 14:00:00 15.8 13 Sudeste 24 Este 0 -- -- 78
2021-02-19 13:00:00 15.6 13 Sudeste 27 Sudeste 0 -- -- 79
2021-02-19 12:00:00 15 12 Sudeste 23 Este 0 -- -- 82
2021-02-19 11:00:00 14.2 9 Este 18 Sudeste 0 -- -- 86
2021-02-19 10:00:00 12.5 6 Este 13 Este 0 -- -- 98
2021-02-19 09:00:00 10.6 5 Nordeste 11 Este 0 -- -- 99
2021-02-19 08:00:00 9.8 4 Nordeste 10 Nordeste 0 -- -- 99
2021-02-19 07:00:00 9.6 7 Nordeste 10 Nordeste 0 -- -- 98
2021-02-19 06:00:00 10 4 Nordeste 8 Norte 0 -- -- 98
2021-02-19 05:00:00 10.2 3 Nordeste 10 Nordeste 0 -- -- 99
2021-02-19 04:00:00 9.7 5 Nordeste 8 Nordeste 0 -- -- 99
2021-02-19 03:00:00 9.3 5 Nordeste 8 Nordeste 0 -- -- 98
2021-02-19 02:00:00 9.8 4 Nordeste 7 Nordeste 0 -- -- 97
2021-02-19 01:00:00 9.8 4 Nordeste 7 Nordeste 0 -- -- 98
2021-02-19 00:00:00 9.6 4 Nordeste 6 Nordeste 0 -- -- 98
2021-02-18 23:00:00 8.5 3 Nordeste 4 Nordeste 0 -- -- 97
2021-02-18 22:00:00 9.3 2 Nordeste 4 Sudoeste 0 -- -- 94
2021-02-18 21:00:00 11.8 3 Oeste 9 Sudoeste 0 -- -- 89
2021-02-18 20:00:00 14.7 7 Sudoeste 14 Sudoeste 0 -- -- 81
2021-02-18 19:00:00 15.2 7 Sur 15 Sudoeste 0 -- -- 81
2021-02-18 18:00:00 15.9 6 Sur 17 Sur 0 -- -- 77
2021-02-18 17:00:00 16.8 8 Sur 17 Sur 0 -- -- 76
2021-02-18 16:00:00 16.4 6 Sur 13 Sudeste 0 -- -- 82
2021-02-18 15:00:00 16.7 7 Sur 14 Sudeste 0 -- -- 79
2021-02-18 14:00:00 15.7 9 Sudeste 14 Sudeste 0 -- -- 83
2021-02-18 13:00:00 15.7 9 Sudeste 16 Sudeste 0 -- -- 84
2021-02-18 12:00:00 15.5 2 Sudoeste 9 Este 0 -- -- 82
2021-02-18 11:00:00 12.4 3 Nordeste 8 Norte 0 -- -- 97
2021-02-18 10:00:00 9.5 5 Nordeste 10 Norte 0 -- -- 100
2021-02-18 09:00:00 6.6 5 Noroeste 7 Noroeste 0 -- -- 100
2021-02-18 08:00:00 6.2 0 Calma 8 Norte 0 -- -- 99
2021-02-18 07:00:00 7 5 Nordeste 8 Norte 0 -- -- 100
2021-02-18 06:00:00 6.5 4 Norte 7 Norte 0 -- -- 100
2021-02-18 05:00:00 6.3 3 Nordeste 6 Nordeste 0 -- -- 99
2021-02-18 04:00:00 6.4 4 Norte 8 Nordeste 0 -- -- 99
2021-02-18 03:00:00 6.2 4 Norte 6 Norte 0 -- -- 98
2021-02-18 02:00:00 6.5 4 Norte 8 Este 0 -- -- 97
2021-02-18 01:00:00 7.8 3 Nordeste 6 Noroeste 0 -- -- 95
2021-02-18 00:00:00 9 3 Norte 6 Noroeste 0 -- -- 96
2021-02-17 23:00:00 10.3 3 Norte 10 Oeste 0 -- -- 93
2021-02-17 22:00:00 9.8 6 Noroeste 9 Noroeste 0 -- -- 96
2021-02-17 21:00:00 9.9 4 Noroeste 6 Oeste 0 -- -- 94
2021-02-17 20:00:00 11.9 3 Oeste 8 Oeste 0 -- -- 88
2021-02-17 19:00:00 15.1 7 Oeste 14 Oeste 0 -- -- 79
2021-02-17 18:00:00 16 8 Sudoeste 16 Oeste 0 -- -- 79
2021-02-17 17:00:00 16.6 10 Sudoeste 16 Sudoeste 0 -- -- 76
2021-02-17 16:00:00 16.9 9 Sudoeste 15 Sudoeste 0 -- -- 74
2021-02-17 15:00:00 16.8 9 Sudoeste 13 Sur 0 -- -- 71
2021-02-17 14:00:00 16.7 9 Sudoeste 13 Sudoeste 0 -- -- 69
2021-02-17 13:00:00 16.7 8 Sudoeste 11 Sur 0 -- -- 71
2021-02-17 12:00:00 16.5 4 Sur 10 Nordeste 0 -- -- 71
2021-02-17 11:00:00 13.3 5 Este 12 Nordeste 0 -- -- 85
2021-02-17 10:00:00 9.8 3 Nordeste 10 Nordeste 0 -- -- 100
2021-02-17 09:00:00 5.5 4 Nordeste 6 Nordeste 0 -- -- 100
2021-02-17 08:00:00 4.9 2 Norte 4 Norte 0 -- -- 99
2021-02-17 07:00:00 5.4 4 Noroeste 4 Noroeste 0 -- -- 99
2021-02-17 06:00:00 5.5 2 Norte 6 Norte 0 -- -- 98
2021-02-17 05:00:00 6.2 4 Norte 6 Norte 0 -- -- 99
2021-02-17 04:00:00 6.8 5 Norte 6 Norte 0 -- -- 99
2021-02-17 03:00:00 7.1 4 Norte 6 Nordeste 0 -- -- 98
2021-02-17 02:00:00 7.8 4 Norte 7 Norte 0 -- -- 98
2021-02-17 01:00:00 9.4 4 Norte 8 Norte 0 -- -- 97
2021-02-17 00:00:00 9.7 5 Norte 9 Norte 0 -- -- 98
2021-02-16 23:00:00 9 5 Norte 8 Norte 0 -- -- 98
2021-02-16 22:00:00 9.1 4 Norte 6 Norte 0 -- -- 95
2021-02-16 21:00:00 10.5 4 Norte 5 Noroeste 0 -- -- 92
2021-02-16 20:00:00 12.6 3 Noroeste 7 Noroeste 0 -- -- 90
2021-02-16 19:00:00 15.6 2 Oeste 10 Sudoeste 0 -- -- 80
2021-02-16 18:00:00 17.1 5 Sudoeste 9 Sudoeste 0 -- -- 71
2021-02-16 17:00:00 17.7 5 Sudoeste 10 Sudoeste 0 -- -- 63
2021-02-16 16:00:00 17.9 6 Sur 13 Sur 0 -- -- 63
2021-02-16 15:00:00 17.8 8 Sudeste 15 Sudeste 0 -- -- 63
2021-02-16 14:00:00 17 9 Sur 19 Sudeste 0 -- -- 64
2021-02-16 13:00:00 16.5 10 Sudeste 24 Sudeste 0 -- -- 66
2021-02-16 12:00:00 16.3 12 Este 24 Sudeste 0 -- -- 67
2021-02-16 11:00:00 14.1 11 Este 19 Este 0 -- -- 69
2021-02-16 10:00:00 10.4 6 Nordeste 13 Este 0 -- -- 83
2021-02-16 09:00:00 6.9 6 Nordeste 12 Nordeste 0 -- -- 95
2021-02-16 08:00:00 6 5 Nordeste 9 Nordeste 0 -- -- 95
2021-02-16 07:00:00 6.1 5 Norte 9 Norte 0 -- -- 95
2021-02-16 06:00:00 6.8 5 Nordeste 11 Nordeste 0 -- -- 94
2021-02-16 05:00:00 7.4 5 Nordeste 9 Nordeste 0 -- -- 92
2021-02-16 04:00:00 8.6 4 Nordeste 11 Nordeste 0 -- -- 87
2021-02-16 03:00:00 12.3 5 Este 27 Sudeste 0 -- -- 77
2021-02-16 02:00:00 13.7 14 Sudeste 28 Sudeste 0 -- -- 74
2021-02-16 01:00:00 13.7 10 Sudeste 23 Sudeste 0 -- -- 76
2021-02-16 00:00:00 14.1 13 Sudeste 26 Sudeste 0 -- -- 74
2021-02-15 23:00:00 14.3 13 Sudeste 32 Sudeste 0 -- -- 74
2021-02-15 22:00:00 14.5 14 Sudeste 28 Sudeste 0 -- -- 74
2021-02-15 21:00:00 14.8 12 Sudeste 26 Este 0 -- -- 77
2021-02-15 20:00:00 15.2 12 Sudeste 26 Sudeste 0 -- -- 76
2021-02-15 19:00:00 16 12 Sudeste 24 Sudeste 0 -- -- 75
2021-02-15 18:00:00 17.5 8 Sudeste 18 Sudeste 0 -- -- 72
2021-02-15 17:00:00 18.4 8 Sudeste 22 Sudeste 0 -- -- 66
2021-02-15 16:00:00 19.1 12 Sudeste 22 Sudeste 0 -- -- 61
2021-02-15 15:00:00 18.7 12 Sudeste 22 Sudeste 0 -- -- 59
2021-02-15 14:00:00 18.6 11 Sudeste 24 Sudeste 0 -- -- 58
2021-02-15 13:00:00 17.6 12 Sudeste 23 Sudeste 0 -- -- 62
2021-02-15 12:00:00 16.3 12 Este 23 Este 0 -- -- 62
2021-02-15 11:00:00 14 8 Nordeste 15 Nordeste 0 -- -- 74
2021-02-15 10:00:00 10.9 6 Nordeste 13 Nordeste 0 -- -- 87
2021-02-15 09:00:00 7.2 6 Nordeste 10 Nordeste 0 -- -- 96
2021-02-15 08:00:00 6.4 6 Nordeste 10 Nordeste 0 -- -- 95
2021-02-15 07:00:00 6.8 6 Nordeste 10 Nordeste 0 -- -- 93
2021-02-15 06:00:00 7.2 7 Nordeste 12 Nordeste 0 -- -- 93
2021-02-15 05:00:00 7.5 7 Nordeste 12 Nordeste 0 -- -- 93
2021-02-15 04:00:00 6.7 6 Norte 10 Nordeste 0 -- -- 95
2021-02-15 03:00:00 7.4 5 Nordeste 10 Nordeste 0 -- -- 94
2021-02-15 02:00:00 7.6 5 Nordeste 10 Nordeste 0 -- -- 94
2021-02-15 01:00:00 7.9 5 Nordeste 9 Nordeste 0 -- -- 96
2021-02-15 00:00:00 7.6 6 Nordeste 8 Nordeste 0 -- -- 98
2021-02-14 23:00:00 7.7 3 Nordeste 8 Este 0 -- -- 94
2021-02-14 22:00:00 8.6 0 Calma 6 Sudeste 0 -- -- 93
2021-02-14 21:00:00 10.4 3 Este 5 Este 0 -- -- 90
2021-02-14 20:00:00 12.2 4 Norte 5 Nordeste 0 -- -- 86
2021-02-14 19:00:00 16.9 2 Nordeste 6 Este 0 -- -- 71
2021-02-14 18:00:00 19.4 3 Este 13 Sudeste 0 -- -- 55
2021-02-14 17:00:00 18.7 7 Sudeste 13 Sudeste 0 -- -- 60
2021-02-14 16:00:00 18.2 9 Sudeste 14 Sudeste 0 -- -- 66
2021-02-14 15:00:00 19.4 8 Sudoeste 13 Nordeste 0 -- -- 46
2021-02-14 14:00:00 21.1 6 Nordeste 16 Nordeste 0 -- -- 42
2021-02-14 13:00:00 19.8 8 Este 22 Nordeste 0 -- -- 48
2021-02-14 12:00:00 17.2 12 Este 27 Este 0 -- -- 60
2021-02-14 11:00:00 14.4 6 Nordeste 12 Este 0 -- -- 65
2021-02-14 10:00:00 11.1 4 Nordeste 9 Nordeste 0 -- -- 71
2021-02-14 09:00:00 7.4 0 Calma 12 Norte 0 -- -- 82
2021-02-14 08:00:00 7.3 6 Norte 10 Norte 0 -- -- 78
2021-02-14 07:00:00 7.8 6 Norte 14 Norte 0 -- -- 77
2021-02-14 06:00:00 7.6 7 Norte 13 Norte 0 -- -- 83
2021-02-14 05:00:00 7.7 8 Norte 14 Norte 0 -- -- 83
2021-02-14 04:00:00 6.5 5 Nordeste 10 Nordeste 0 -- -- 91
2021-02-14 03:00:00 7.2 5 Norte 9 Norte 0 -- -- 87
2021-02-14 02:00:00 7 6 Norte 10 Nordeste 0 -- -- 87
2021-02-14 01:00:00 6.8 4 Nordeste 10 Norte 0 -- -- 91
2021-02-14 00:00:00 6.7 6 Norte 9 Norte 0 -- -- 93
2021-02-13 23:00:00 7.5 2 Nordeste 8 Norte 0 -- -- 90
2021-02-13 22:00:00 9.5 5 Norte 10 Noroeste 0 -- -- 84
2021-02-13 21:00:00 9.3 6 Noroeste 8 Noroeste 0 -- -- 92
2021-02-13 20:00:00 12.1 3 Oeste 7 Oeste 0 -- -- 84
2021-02-13 19:00:00 16.1 3 Oeste 9 Sudoeste 0 -- -- 74
2021-02-13 18:00:00 18.9 4 Sudoeste 9 Sudoeste 0 -- -- 57
2021-02-13 17:00:00 19.5 4 Sudoeste 11 Sur 0 -- -- 51
2021-02-13 16:00:00 19.4 6 Sudoeste 11 Sur 0 -- -- 54
2021-02-13 15:00:00 18.3 6 Sur 12 Sudoeste 0 -- -- 58
2021-02-13 14:00:00 17.3 5 Sudoeste 10 Sur 0 -- -- 66
2021-02-13 13:00:00 16.4 8 Sur 13 Este 0 -- -- 70
2021-02-13 08:00:00 -- -- -- -- -- -- -- -- --
2021-02-13 07:00:00 7 4 Nordeste 10 Norte 0 -- -- 99
2021-02-13 06:00:00 7.6 6 Norte 10 Nordeste 0 -- -- 99
2021-02-13 05:00:00 7.9 5 Noroeste 12 Noroeste 0 -- -- 99
2021-02-13 04:00:00 8.7 5 Noroeste 16 Noroeste 0 -- -- 98
2021-02-13 03:00:00 8.9 8 Noroeste 15 Noroeste 0 -- -- 98
2021-02-13 02:00:00 8.9 6 Noroeste 13 Noroeste 0 -- -- 97
2021-02-13 01:00:00 8.8 6 Noroeste 10 Noroeste 0 -- -- 96
2021-02-13 00:00:00 9 4 Norte 9 Noroeste 0 -- -- 95
2021-02-12 23:00:00 9.4 5 Norte 8 Norte 0 -- -- 95
2021-02-12 22:00:00 9.5 5 Noroeste 8 Noroeste 0 -- -- 95
2021-02-12 21:00:00 10.8 4 Noroeste 6 Oeste 0 -- -- 93
2021-02-12 20:00:00 13.4 3 Oeste 16 Oeste 0 -- -- 88
2021-02-12 19:00:00 15.2 9 Oeste 21 Sudoeste 0 -- -- 83
2021-02-12 18:00:00 17.5 11 Sudoeste 20 Oeste 0 -- -- 73
2021-02-12 17:00:00 19.6 9 Noroeste 23 Noroeste 0 -- -- 54
2021-02-12 16:00:00 19.5 9 Noroeste 20 Noroeste 0 -- -- 55
2021-02-12 15:00:00 19.2 6 Noroeste 22 Norte 0 -- -- 59
2021-02-12 14:00:00 18.2 10 Noroeste 22 Norte 0 -- -- 63
2021-02-12 13:00:00 17.1 11 Noroeste 22 Norte 0 -- -- 66
2021-02-12 12:00:00 16 10 Noroeste 19 Noroeste 0 -- -- 76
2021-02-12 11:00:00 15.1 10 Noroeste 26 Oeste 0 -- -- 82
2021-02-12 10:00:00 13.2 10 Noroeste 24 Noroeste 0 -- -- 97
2021-02-12 09:00:00 11.9 10 Noroeste 20 Noroeste 0 -- -- 99
2021-02-12 08:00:00 12.1 5 Oeste 14 Noroeste 0 -- -- 97
2021-02-12 07:00:00 13.1 8 Noroeste 17 Oeste 0.4 -- -- 97
2021-02-12 06:00:00 14.5 6 Oeste 17 Oeste 0.6 -- -- 98
2021-02-12 05:00:00 14.6 6 Oeste 17 Sudoeste 0.2 -- -- 98
2021-02-12 04:00:00 14.8 12 Sudoeste 19 Sudoeste 0 -- -- 98
2021-02-12 03:00:00 14.7 6 Oeste 15 Sudoeste 0 -- -- 98
2021-02-12 02:00:00 14.9 8 Oeste 15 Oeste 0 -- -- 98
2021-02-12 01:00:00 15 7 Oeste 18 Sudoeste 0 -- -- 99
2021-02-12 00:00:00 15 5 Oeste 10 Sudoeste 0 -- -- 99
2021-02-11 23:00:00 14.9 5 Sudoeste 10 Sudoeste 0 -- -- 99
2021-02-11 22:00:00 14.8 3 Sudoeste 8 Oeste 0 -- -- 98
2021-02-11 21:00:00 14.9 3 Sudoeste 8 Sudoeste 0 -- -- 98
2021-02-11 20:00:00 15.1 3 Sudoeste 7 Sur 0 -- -- 97
2021-02-11 19:00:00 15.4 5 Sudoeste 9 Sur 0 -- -- 97
2021-02-11 18:00:00 15.9 4 Sur 11 Sudeste 0 -- -- 95
2021-02-11 17:00:00 16.2 6 Sur 12 Sur 0.6 -- -- 95
2021-02-11 16:00:00 16.9 6 Sur 13 Sur 0 -- -- 90
2021-02-11 15:00:00 17.3 7 Sudeste 15 Sudeste 0 -- -- 88
2021-02-11 14:00:00 17.4 8 Sudeste 13 Sudeste 0 -- -- 87
2021-02-11 13:00:00 16.7 8 Sudeste 14 Sudeste 0 -- -- 90
2021-02-11 12:00:00 16.6 5 Sudeste 11 Sudeste 0 -- -- 89
2021-02-11 11:00:00 16.1 5 Sudeste 9 Este 0 -- -- 92
2021-02-11 10:00:00 14.9 0 Calma 8 Sudoeste 0 -- -- 99
2021-02-11 09:00:00 14.4 3 Sudoeste 7 Sudoeste 0.2 -- -- 99
2021-02-11 08:00:00 14.2 0 Calma 4 Sudoeste 0 -- -- 98
2021-02-11 07:00:00 14.4 3 Sudoeste 8 Oeste 0 -- -- 98
2021-02-11 06:00:00 14.4 2 Oeste 10 Oeste 0 -- -- 98
2021-02-11 05:00:00 14.4 6 Sudoeste 10 Sudoeste 0 -- -- 99
2021-02-11 04:00:00 14.2 3 Sudoeste 9 Sudoeste 0 -- -- 99
2021-02-11 03:00:00 14.1 4 Sudoeste 8 Sudoeste 0 -- -- 99
2021-02-11 02:00:00 14.4 4 Oeste 13 Oeste 0 -- -- 98
2021-02-11 01:00:00 14.6 6 Oeste 17 Oeste 0 -- -- 98
2021-02-11 00:00:00 14.6 8 Oeste 20 Sudoeste 0 -- -- 98
2021-02-10 23:00:00 14.9 13 Sudoeste 22 Sudoeste 0 -- -- 96
2021-02-10 22:00:00 14.8 13 Sudoeste 23 Sudoeste 0 -- -- 96
2021-02-10 21:00:00 14.7 14 Sudoeste 24 Sudoeste 0 -- -- 97
2021-02-10 20:00:00 15 15 Sudoeste 26 Sudoeste 0 -- -- 95
2021-02-10 19:00:00 15.2 17 Sudoeste 32 Sudoeste 0 -- -- 94
2021-02-10 18:00:00 15.5 18 Sudoeste 31 Sudoeste 0 -- -- 91
2021-02-10 17:00:00 16 18 Sudoeste 36 Sudoeste 0 -- -- 88
2021-02-10 16:00:00 16.4 19 Sudoeste 35 Sudoeste 0 -- -- 86
2021-02-10 15:00:00 17.1 22 Sudoeste 37 Sudoeste 0 -- -- 84
2021-02-10 14:00:00 16.4 21 Sudoeste 37 Oeste 0 -- -- 88
2021-02-10 13:00:00 17 24 Sudoeste 36 Oeste 0 -- -- 86
2021-02-10 12:00:00 16 23 Sudoeste 42 Sudoeste 0 -- -- 90
2021-02-10 11:00:00 15.9 23 Sudoeste 41 Sudoeste 0 -- -- 92
2021-02-10 10:00:00 15.1 24 Sudoeste 41 Sudoeste 0 -- -- 95
2021-02-10 09:00:00 14.8 24 Sudoeste 40 Sudoeste 0 -- -- 95
2021-02-10 08:00:00 14.7 24 Sudoeste 41 Sudoeste 0 -- -- 94
2021-02-10 07:00:00 14.9 24 Sudoeste 44 Sudoeste 0 -- -- 93
2021-02-10 06:00:00 14.9 25 Sudoeste 48 Sudoeste 0 -- -- 93
2021-02-10 05:00:00 14.6 24 Sudoeste 38 Oeste 0.2 -- -- 96
2021-02-10 04:00:00 14.6 19 Sudoeste 35 Sudoeste 0 -- -- 92
2021-02-10 03:00:00 14.5 20 Sudoeste 31 Sudoeste 0 -- -- 92
2021-02-10 02:00:00 14.4 16 Oeste 31 Sudoeste 0 -- -- 94
2021-02-10 01:00:00 14.3 19 Oeste 32 Sudoeste 0 -- -- 93
2021-02-10 00:00:00 14.2 17 Oeste 36 Oeste 0 -- -- 92
2021-02-09 23:00:00 14.6 15 Oeste 31 Sudoeste 0 -- -- 92
2021-02-09 22:00:00 14.4 17 Oeste 30 Sudoeste 0 -- -- 93
2021-02-09 21:00:00 14 18 Oeste 30 Sudoeste 0 -- -- 95
2021-02-09 20:00:00 13.7 19 Oeste 33 Sudoeste 0 -- -- 94
2021-02-09 19:00:00 14.5 14 Oeste 44 Sudoeste 0.2 -- -- 94
2021-02-09 18:00:00 15.3 27 Sudoeste 51 Sudoeste 0.2 -- -- 89
2021-02-09 17:00:00 14.9 26 Sudoeste 50 Sudoeste 0 -- -- 89
2021-02-09 16:00:00 15.3 22 Sudoeste 43 Sudoeste 0 -- -- 88
2021-02-09 15:00:00 15.3 23 Sudoeste 44 Sudoeste 0 -- -- 88
2021-02-09 14:00:00 14.8 23 Sudoeste 48 Sudoeste 0 -- -- 91
2021-02-09 13:00:00 14.8 25 Sudoeste 45 Sudoeste 0 -- -- 91
2021-02-09 12:00:00 13.7 29 Sudoeste 53 Sudoeste 0.4 -- -- 96
2021-02-09 11:00:00 15.1 26 Sudoeste 49 Sudoeste 0 -- -- 84
2021-02-09 10:00:00 14.6 14 Sudoeste 37 Sudoeste 0 -- -- 87
2021-02-09 09:00:00 14.4 22 Sudoeste 39 Sudoeste 0 -- -- 87
2021-02-09 08:00:00 14.2 21 Sudoeste 36 Sudoeste 0 -- -- 89
2021-02-09 07:00:00 13.7 19 Sudoeste 40 Sur 0 -- -- 90
2021-02-09 06:00:00 13.8 18 Sudoeste 31 Sudoeste 0 -- -- 87
2021-02-09 05:00:00 14 14 Sudoeste 27 Oeste 0 -- -- 85
2021-02-09 04:00:00 13.8 13 Sudoeste 28 Sudoeste 0 -- -- 86
2021-02-09 03:00:00 12.9 11 Sudoeste 18 Sudoeste 0 -- -- 98
2021-02-09 02:00:00 9.4 0 Calma 7 Oeste 0 -- -- 97
2021-02-09 01:00:00 11.4 5 Oeste 12 Oeste 0 -- -- 96
2021-02-09 00:00:00 11.9 4 Sudoeste 10 Oeste 0 -- -- 96
2021-02-08 23:00:00 12.6 6 Oeste 22 Sudoeste 0 -- -- 93
2021-02-08 22:00:00 12.9 13 Oeste 21 Sudoeste 0 -- -- 91
2021-02-08 21:00:00 13 10 Oeste 21 Sudoeste 0 -- -- 92
2021-02-08 20:00:00 13.7 13 Oeste 27 Oeste 0 -- -- 88
2021-02-08 19:00:00 13.7 13 Oeste 23 Oeste 0 -- -- 89
2021-02-08 18:00:00 14.4 8 Oeste 21 Noroeste 0 -- -- 85
2021-02-08 17:00:00 15.1 11 Oeste 28 Oeste 0 -- -- 75
2021-02-08 16:00:00 15.1 11 Noroeste 40 Sudoeste 0 -- -- 77
2021-02-08 15:00:00 16.4 23 Sudoeste 37 Sudoeste 0 -- -- 76
2021-02-08 14:00:00 15.8 17 Sudoeste 33 Sudoeste 0 -- -- 78
2021-02-08 13:00:00 15.6 19 Sudoeste 30 Oeste 0 -- -- 77
2021-02-08 12:00:00 15.1 17 Sudoeste 31 Sudoeste 0 -- -- 78
2021-02-08 11:00:00 14.2 17 Oeste 28 Oeste 0 -- -- 80
2021-02-08 10:00:00 12.3 9 Oeste 17 Oeste 0 -- -- 91
2021-02-08 09:00:00 10.4 7 Oeste 17 Oeste 0 -- -- 95
2021-02-08 08:00:00 10.8 10 Oeste 17 Oeste 0 -- -- 95
2021-02-08 07:00:00 10.6 5 Oeste 15 Oeste 0.2 -- -- 97
2021-02-08 06:00:00 11.7 8 Noroeste 25 Oeste 1 -- -- 95
2021-02-08 05:00:00 12.6 15 Noroeste 58 Sudoeste 3.6 -- -- 95
2021-02-08 04:00:00 14.4 32 Sudoeste 49 Sudoeste 0.4 -- -- 97
2021-02-08 03:00:00 14 27 Sudoeste 56 Sudoeste 1.4 -- -- 98
2021-02-08 02:00:00 13.8 27 Sudoeste 50 Sudoeste 0.6 -- -- 97
2021-02-08 01:00:00 14.6 26 Sudoeste 44 Sudoeste 0 -- -- 87
2021-02-08 00:00:00 14.4 21 Sudoeste 35 Sudoeste 0 -- -- 85
2021-02-07 23:00:00 13.5 17 Sudoeste 37 Sudoeste 0 -- -- 89
2021-02-07 22:00:00 13.2 14 Sudoeste 28 Sudoeste 0 -- -- 87
2021-02-07 21:00:00 12.7 15 Sudoeste 30 Sudoeste 0 -- -- 87
2021-02-07 20:00:00 12.6 15 Sudoeste 35 Sudoeste 0 -- -- 86
2021-02-07 19:00:00 13.2 18 Sudoeste 32 Sudoeste 0 -- -- 79
2021-02-07 18:00:00 13.7 17 Sudoeste 31 Sudoeste 0 -- -- 72
2021-02-07 17:00:00 13.7 16 Sudoeste 29 Oeste 0 -- -- 69
2021-02-07 16:00:00 13.7 15 Sudoeste 30 Sudoeste 0 -- -- 68
2021-02-07 15:00:00 14.5 13 Oeste 28 Noroeste 0 -- -- 58
2021-02-07 14:00:00 14.2 14 Noroeste 30 Noroeste 0 -- -- 60
2021-02-07 13:00:00 12.8 13 Noroeste 35 Oeste 0 -- -- 62
2021-02-07 12:00:00 12.3 13 Noroeste 28 Noroeste 0 -- -- 63
2021-02-07 11:00:00 11.1 13 Noroeste 31 Noroeste 0 -- -- 71
2021-02-07 10:00:00 9.2 12 Noroeste 26 Noroeste 0 -- -- 80
2021-02-07 09:00:00 7.6 8 Noroeste 23 Norte 0 -- -- 91
2021-02-07 08:00:00 7.9 10 Noroeste 24 Noroeste 0 -- -- 90
2021-02-07 07:00:00 8.5 10 Noroeste 31 Norte 0 -- -- 88
2021-02-07 06:00:00 9.1 13 Noroeste 25 Noroeste 0 -- -- 88
2021-02-07 05:00:00 9.7 10 Noroeste 31 Noroeste 0 -- -- 88
2021-02-07 04:00:00 9.8 10 Noroeste 23 Oeste 0 -- -- 91
2021-02-07 03:00:00 10.3 6 Noroeste 24 Oeste 0 -- -- 92
2021-02-07 02:00:00 10.3 9 Noroeste 21 Noroeste 0 -- -- 92
2021-02-07 01:00:00 10.3 8 Noroeste 24 Noroeste 0 -- -- 93
2021-02-07 00:00:00 10.6 10 Oeste 23 Noroeste 0 -- -- 90
2021-02-06 23:00:00 10.4 8 Oeste 18 Oeste 0.2 -- -- 93
2021-02-06 22:00:00 10.6 7 Oeste 22 Oeste 0 -- -- 92
2021-02-06 21:00:00 10.8 9 Oeste 16 Oeste 0.4 -- -- 92
2021-02-06 20:00:00 11 9 Oeste 17 Oeste 0.4 -- -- 91
2021-02-06 19:00:00 11.6 9 Oeste 27 Oeste 0 -- -- 87
2021-02-06 18:00:00 12.3 10 Noroeste 32 Noroeste 0 -- -- 82
2021-02-06 17:00:00 13 12 Noroeste 36 Noroeste 0 -- -- 80
2021-02-06 16:00:00 13.4 12 Oeste 36 Oeste 0 -- -- 83
2021-02-06 15:00:00 14.5 18 Oeste 36 Oeste 0 -- -- 68
2021-02-06 14:00:00 14.6 15 Oeste 31 Oeste 0 -- -- 72
2021-02-06 13:00:00 13.6 14 Oeste 31 Oeste 0 -- -- 79
2021-02-06 12:00:00 13.2 9 Oeste 29 Oeste 0 -- -- 82
2021-02-06 11:00:00 13.4 11 Oeste 24 Oeste 0 -- -- 79
2021-02-06 10:00:00 12.2 12 Oeste 23 Oeste 0 -- -- 84
2021-02-06 09:00:00 11.5 10 Oeste 17 Sudoeste 0 -- -- 91
2021-02-06 08:00:00 10.7 8 Oeste 19 Oeste 0 -- -- 91
2021-02-06 07:00:00 11.4 9 Oeste 20 Sudoeste 0 -- -- 92
2021-02-06 06:00:00 11.6 10 Oeste 18 Oeste 0 -- -- 92
2021-02-06 05:00:00 11.7 10 Oeste 25 Sudoeste 0 -- -- 90
2021-02-06 04:00:00 11.3 11 Oeste 22 Sudoeste 0 -- -- 92
2021-02-06 03:00:00 11 11 Oeste 22 Oeste 0 -- -- 90
2021-02-06 02:00:00 10.2 9 Oeste 18 Oeste 0 -- -- 93
2021-02-06 01:00:00 10.7 9 Oeste 22 Oeste 0 -- -- 94
2021-02-06 00:00:00 10.5 6 Oeste 14 Oeste 0 -- -- 96
2021-02-05 23:00:00 10.7 7 Noroeste 18 Oeste 0.2 -- -- 96
2021-02-05 22:00:00 11.2 5 Noroeste 14 Noroeste 0.2 -- -- 98
2021-02-05 21:00:00 11.6 6 Norte 16 Noroeste 0.4 -- -- 96
2021-02-05 20:00:00 13.1 8 Sudoeste 15 Sudoeste 0.8 -- -- 92
2021-02-05 19:00:00 13.3 12 Sudoeste 23 Sudoeste 1.2 -- -- 94
2021-02-05 18:00:00 12.9 12 Sur 32 Sur 0.4 -- -- 93
2021-02-05 17:00:00 14.1 17 Sur 36 Sur 0.6 -- -- 91
2021-02-05 16:00:00 13.8 22 Sudeste 42 Sur 0.8 -- -- 95
2021-02-05 15:00:00 13.3 22 Sur 41 Sur 2.6 -- -- 95
2021-02-05 14:00:00 13.6 16 Sudeste 36 Sudeste 0.8 -- -- 94
2021-02-05 13:00:00 13.4 10 Este 31 Este 0 -- -- 98
2021-02-05 12:00:00 12.9 10 Este 27 Este 0.6 -- -- 99
2021-02-05 11:00:00 12.5 14 Este 24 Este 1.2 -- -- 100
2021-02-05 10:00:00 12.5 4 Nordeste 11 Oeste 11.8 -- -- 100
2021-02-05 09:00:00 12.5 3 Noroeste 10 Norte 2.8 -- -- 100
2021-02-05 08:00:00 12.3 5 Norte 10 Este 8.8 -- -- 100
2021-02-05 07:00:00 12.3 4 Norte 17 Noroeste 1 -- -- 100
2021-02-05 06:00:00 12.3 9 Noroeste 21 Noroeste 0 -- -- 100
2021-02-05 05:00:00 12.3 6 Norte 15 Nordeste 0.8 -- -- 100
2021-02-05 04:00:00 12.2 4 Noroeste 14 Norte 0.8 -- -- 100
2021-02-05 03:00:00 12.1 6 Norte 12 Norte 0.8 -- -- 99
2021-02-05 02:00:00 12.2 6 Norte 13 Norte 0.2 -- -- 99
2021-02-05 01:00:00 12 2 Nordeste 11 Nordeste 0 -- -- 99
2021-02-05 00:00:00 11.9 4 Norte 7 Norte 0 -- -- 99
2021-02-04 23:00:00 11.6 5 Norte 12 Norte 0 -- -- 99
2021-02-04 22:00:00 12.1 6 Noroeste 12 Noroeste 0 -- -- 99
2021-02-04 21:00:00 12.1 4 Norte 10 Norte 0 -- -- 98
2021-02-04 20:00:00 12.5 4 Norte 7 Nordeste 0 -- -- 97
2021-02-04 19:00:00 13.8 2 Norte 13 Este 0 -- -- 95
2021-02-04 18:00:00 15 6 Este 12 Este 0 -- -- 91
2021-02-04 17:00:00 14.8 3 Norte 13 Este 0 -- -- 92
2021-02-04 16:00:00 14.8 6 Nordeste 13 Este 0.8 -- -- 93
2021-02-04 15:00:00 14.4 3 Sudoeste 21 Sudoeste 0.2 -- -- 93
2021-02-04 14:00:00 14.7 9 Sudoeste 24 Sudoeste 0.2 -- -- 92
2021-02-04 13:00:00 15.9 10 Sur 24 Sur 0 -- -- 86
2021-02-04 12:00:00 15.1 15 Sur 34 Sur 0 -- -- 88
2021-02-04 11:00:00 14.8 16 Sur 33 Sur 1 -- -- 93
2021-02-04 10:00:00 14.7 13 Sur 24 Sudeste 0.6 -- -- 96
2021-02-04 09:00:00 14.3 12 Sudeste 27 Sudeste 0 -- -- 96
2021-02-04 08:00:00 14.4 14 Sudeste 28 Sudeste 0 -- -- 95
2021-02-04 07:00:00 14.4 10 Sudeste 21 Sudeste 0 -- -- 97
2021-02-04 06:00:00 14.3 11 Sur 24 Sudeste 0.2 -- -- 97
2021-02-04 05:00:00 14.5 12 Sudeste 20 Sudeste 0 -- -- 98
2021-02-04 04:00:00 14.4 7 Sudeste 15 Sudeste 2.2 -- -- 98
2021-02-04 03:00:00 14.7 2 Noroeste 19 Sudeste 1.8 -- -- 96
2021-02-04 02:00:00 14.9 9 Sudeste 20 Sudeste 0 -- -- 93
2021-02-04 01:00:00 15 9 Sudeste 18 Sudeste 0 -- -- 93
2021-02-04 00:00:00 14.8 9 Sur 22 Sur 0 -- -- 94
2021-02-03 23:00:00 15 11 Sur 24 Sur 0 -- -- 93
2021-02-03 22:00:00 15.2 8 Sur 18 Sur 0 -- -- 93
2021-02-03 21:00:00 15.2 6 Sur 17 Sur 0 -- -- 92
2021-02-03 20:00:00 15.2 9 Sur 23 Sudoeste 0 -- -- 91
2021-02-03 19:00:00 15.8 12 Sudoeste 21 Sudoeste 0 -- -- 89
2021-02-03 18:00:00 16.2 6 Sur 13 Sur 0 -- -- 86
2021-02-03 17:00:00 16.6 7 Sur 14 Sur 0 -- -- 83
2021-02-03 16:00:00 17.5 6 Sur 20 Sur 0 -- -- 81
2021-02-03 15:00:00 17.4 9 Sur 16 Sudeste 0 -- -- 82
2021-02-03 14:00:00 17.8 9 Sur 17 Sudeste 0 -- -- 78
2021-02-03 13:00:00 16.7 9 Sudeste 16 Sudeste 0 -- -- 82
2021-02-03 12:00:00 17.3 8 Sur 16 Sur 0 -- -- 76
2021-02-03 11:00:00 16 7 Sur 17 Sudeste 0 -- -- 85
2021-02-03 10:00:00 13 0 Calma 6 Sur 0 -- -- 98
2021-02-03 09:00:00 11.4 0 Calma 6 Sur 0 -- -- 97
2021-02-03 08:00:00 12.4 2 Sudeste 9 Sudoeste 0 -- -- 93
2021-02-03 07:00:00 13.1 5 Sur 9 Sur 0 -- -- 93
2021-02-03 06:00:00 12.2 4 Este 8 Este 0 -- -- 96
2021-02-03 05:00:00 11.6 4 Este 6 Este 0 -- -- 96
2021-02-03 04:00:00 11.7 2 Nordeste 5 Nordeste 0 -- -- 95
2021-02-03 03:00:00 11.6 2 Norte 6 Noroeste 0 -- -- 95
2021-02-03 02:00:00 11.3 2 Nordeste 5 Norte 0 -- -- 96
2021-02-03 01:00:00 10.5 2 Noroeste 5 Norte 0 -- -- 97
2021-02-03 00:00:00 9.2 5 Noroeste 6 Norte 0 -- -- 97
2021-02-02 23:00:00 11.3 3 Noroeste 11 Oeste 0 -- -- 90
2021-02-02 22:00:00 13.4 6 Oeste 15 Sudoeste 0 -- -- 91
2021-02-02 21:00:00 14 7 Sudoeste 12 Sudoeste 0 -- -- 89
2021-02-02 20:00:00 14.6 7 Sudoeste 15 Sur 0 -- -- 91
2021-02-02 19:00:00 15 9 Sur 17 Sur 0 -- -- 92
2021-02-02 18:00:00 16.1 6 Sur 15 Sur 0 -- -- 88
2021-02-02 17:00:00 15.9 8 Sur 14 Sudoeste 0 -- -- 89
2021-02-02 16:00:00 16.2 6 Sur 14 Sur 0 -- -- 87
2021-02-02 15:00:00 16.7 7 Sudeste 14 Sudeste 0 -- -- 85
2021-02-02 14:00:00 17 6 Sur 12 Sur 0 -- -- 83
2021-02-02 13:00:00 16.3 4 Este 8 Este 0.2 -- -- 89
2021-02-02 12:00:00 14.9 0 Calma 8 Sudeste 0.6 -- -- 94
2021-02-02 11:00:00 15.2 2 Este 10 Nordeste 0 -- -- 90
2021-02-02 10:00:00 13.9 3 Nordeste 6 Nordeste 0 -- -- 97
2021-02-02 09:00:00 12.9 3 Nordeste 5 Nordeste 0 -- -- 96
2021-02-02 08:00:00 12.7 3 Nordeste 5 Nordeste 0 -- -- 97
2021-02-02 07:00:00 13.3 0 Calma 5 Noroeste 0 -- -- 96
2021-02-02 06:00:00 12.9 0 Calma 5 Norte 0 -- -- 96
2021-02-02 05:00:00 13.2 3 Norte 5 Noroeste 0 -- -- 95
2021-02-02 04:00:00 14.4 3 Noroeste 8 Noroeste 0 -- -- 93
2021-02-02 03:00:00 14.8 0 Calma 8 Sudoeste 0 -- -- 96
2021-02-02 02:00:00 14.6 0 Calma 4 Sudoeste 0 -- -- 94
2021-02-02 01:00:00 14.7 0 Calma 4 Oeste 0 -- -- 92
2021-02-02 00:00:00 14.7 2 Oeste 6 Noroeste 0 -- -- 92
2021-02-01 23:00:00 14.6 3 Noroeste 8 Noroeste 0 -- -- 92
2021-02-01 22:00:00 15 0 Calma 5 Sudoeste 0 -- -- 93
2021-02-01 21:00:00 15.3 2 Sudoeste 8 Sudoeste 0 -- -- 91
2021-02-01 20:00:00 15.3 3 Sudoeste 9 Sudoeste 0 -- -- 90
2021-02-01 19:00:00 15.5 5 Sudoeste 13 Sudoeste 0 -- -- 88
2021-02-01 18:00:00 16.3 6 Sudoeste 17 Sudoeste 0 -- -- 81
2021-02-01 17:00:00 17.1 8 Sudoeste 18 Sudoeste 0 -- -- 77
2021-02-01 16:00:00 17.2 10 Sudoeste 21 Sudoeste 0 -- -- 74
2021-02-01 15:00:00 17 11 Sudoeste 22 Sudoeste 0 -- -- 73
2021-02-01 14:00:00 17.1 16 Sudoeste 24 Sudoeste 0 -- -- 71
2021-02-01 13:00:00 17.1 8 Noroeste 22 Noroeste 0 -- -- 70
2021-02-01 12:00:00 16.1 9 Oeste 24 Noroeste 0 -- -- 76
2021-02-01 11:00:00 15.4 10 Noroeste 20 Noroeste 0 -- -- 81
2021-02-01 10:00:00 13.5 3 Noroeste 6 Noroeste 0 -- -- 99
2021-02-01 09:00:00 12.2 3 Noroeste 5 Oeste 0 -- -- 98
2021-02-01 08:00:00 12.7 3 Noroeste 8 Noroeste 0 -- -- 98
2021-02-01 07:00:00 12.4 3 Noroeste 7 Noroeste 0 -- -- 98
2021-02-01 06:00:00 13.3 6 Noroeste 15 Oeste 0 -- -- 98
2021-02-01 05:00:00 13.1 7 Oeste 14 Oeste 0 -- -- 99
2021-02-01 04:00:00 12.2 4 Sudoeste 10 Oeste 0 -- -- 98
2021-02-01 03:00:00 13 4 Oeste 8 Oeste 0 -- -- 97
2021-02-01 02:00:00 14.4 6 Oeste 32 Sudoeste 0 -- -- 97
2021-02-01 01:00:00 14.8 16 Oeste 26 Oeste 0 -- -- 97
2021-02-01 00:00:00 14.8 14 Oeste 26 Sudoeste 0 -- -- 97
2021-01-31 23:00:00 14.8 13 Oeste 26 Oeste 0 -- -- 95
2021-01-31 22:00:00 14.9 14 Oeste 24 Oeste 0 -- -- 95
2021-01-31 21:00:00 15.1 15 Oeste 30 Oeste 0 -- -- 94
2021-01-31 20:00:00 15.5 16 Oeste 28 Oeste 0 -- -- 91
2021-01-31 19:00:00 15.6 14 Oeste 32 Sudoeste 0 -- -- 89
2021-01-31 18:00:00 16.2 17 Oeste 28 Oeste 0 -- -- 85
2021-01-31 17:00:00 17.3 17 Sudoeste 33 Sudoeste 0 -- -- 80
2021-01-31 16:00:00 17.1 18 Sudoeste 35 Oeste 0 -- -- 79
2021-01-31 15:00:00 17.5 18 Sudoeste 34 Sudoeste 0 -- -- 79
2021-01-31 14:00:00 17.4 17 Sudoeste 30 Sudoeste 0 -- -- 77
2021-01-31 13:00:00 16.8 9 Sudoeste 21 Oeste 0 -- -- 74
2021-01-31 12:00:00 15.3 8 Oeste 17 Sudoeste 0 -- -- 79
2021-01-31 11:00:00 14.4 10 Oeste 16 Oeste 0 -- -- 83
2021-01-31 10:00:00 12.3 5 Oeste 10 Sudoeste 0 -- -- 95
2021-01-31 09:00:00 10.7 0 Calma 13 Oeste 0 -- -- 95
2021-01-31 08:00:00 10.5 9 Oeste 17 Sudoeste 0 -- -- 99
2021-01-31 07:00:00 8.3 3 Oeste 9 Noroeste 0 -- -- 98
2021-01-31 06:00:00 7.9 4 Oeste 7 Noroeste 0 -- -- 97
2021-01-31 05:00:00 8.6 4 Noroeste 11 Noroeste 0 -- -- 96
2021-01-31 04:00:00 9.2 8 Oeste 12 Oeste 0 -- -- 97
2021-01-31 03:00:00 8.1 3 Oeste 5 Noroeste 0 -- -- 94
2021-01-31 02:00:00 9.7 3 Nordeste 10 Oeste 0 -- -- 92
2021-01-31 01:00:00 10.9 6 Oeste 11 Oeste 0 -- -- 91
2021-01-31 00:00:00 11.1 3 Oeste 13 Oeste 0 -- -- 87
2021-01-30 23:00:00 12 8 Oeste 13 Oeste 0 -- -- 83
2021-01-30 22:00:00 12.3 6 Oeste 15 Oeste 0 -- -- 80
2021-01-30 21:00:00 12.8 7 Noroeste 18 Noroeste 0 -- -- 75
2021-01-30 20:00:00 13.6 7 Oeste 18 Noroeste 0 -- -- 72
2021-01-30 19:00:00 14.9 9 Noroeste 33 Noroeste 0 -- -- 64
2021-01-30 18:00:00 16.8 16 Oeste 37 Oeste 0 -- -- 53
2021-01-30 17:00:00 18.5 17 Oeste 35 Oeste 0 -- -- 47
2021-01-30 16:00:00 19.2 17 Noroeste 33 Noroeste 0 -- -- 52
2021-01-30 15:00:00 19 14 Noroeste 31 Oeste 0 -- -- 58
2021-01-30 14:00:00 18.2 14 Noroeste 35 Noroeste 0 -- -- 63
2021-01-30 13:00:00 17.8 15 Noroeste 33 Noroeste 0 -- -- 68
2021-01-30 12:00:00 16.3 14 Noroeste 30 Noroeste 0 -- -- 85
2021-01-30 11:00:00 14.2 8 Noroeste 28 Sudoeste 1 -- -- 98
2021-01-30 10:00:00 15.3 17 Oeste 32 Sudoeste 0 -- -- 95
2021-01-30 09:00:00 14.6 17 Oeste 31 Oeste 0 -- -- 97
2021-01-30 08:00:00 14.3 15 Sudoeste 23 Sudoeste 0 -- -- 98
2021-01-30 07:00:00 13.8 10 Sudoeste 22 Sudoeste 0 -- -- 98
2021-01-30 06:00:00 13.2 8 Sudoeste 17 Sudoeste 0 -- -- 98
2021-01-30 05:00:00 13 8 Sudoeste 17 Sudoeste 0 -- -- 96
2021-01-30 04:00:00 13 7 Oeste 21 Sudoeste 0 -- -- 92
2021-01-30 03:00:00 13.4 9 Oeste 16 Oeste 0 -- -- 93
2021-01-30 02:00:00 13.6 8 Sudoeste 15 Sudoeste 0 -- -- 93
2021-01-30 01:00:00 13.6 6 Oeste 13 Sudoeste 0 -- -- 94
2021-01-30 00:00:00 13.5 4 Oeste 16 Oeste 0 -- -- 92